Lehigh, North Dakota
Current Conditions -  °F | °C
As of 2:56 AM on Saturday 25 Oct 2014 (Local Time) from KDIK Reporting Station
Overcast Overcast  
Wind Chill: 43°   Ceiling: 12000
Heat Index: 46°   Visibility: 10mi
Dew Point: 32°   Wind: 6mph
Humidity: 58%   Direction: 280°W
Pressure: 30.09"   Gusts: NA
Location:  46.9271°N, 102.754°W
Report Text: KDIK 250856Z AUTO 28005KT 10SM OVC120 08/00 A3009 RMK AO2 SLP191 T00780000 50003
Loading
Personal Weather Stations






























Interactive Weather Map
Tropical Storm Tracking
New forecast layout! Learn more

10-Day Weather Forecast

Advertisements
Track Severe Weather on mobile